Time;durP1;ratioP1;P1;durP2;ratioP2;P2;SDS_P1;SDS_P2;PMS_P1;PMS_P2;Temp;Humidity;BMP_temperature;BMP_pressure;BME280_temperature;BME280_humidity;BME280_pressure;Samples;Min_cycle;Max_cycle;Signal;HPM_P1;HPM_P2
2024/02/08 00:01:41;;;;;;;8.05;3.22;;;;;;;;;;5027125;28;20041;-77
2024/02/08 00:04:07;;;;;;;8.20;3.22;;;;;;;;;;5035827;28;20112;-76
2024/02/08 00:06:32;;;;;;;5.53;2.90;;;;;;;;;;5025815;28;20087;-77
2024/02/08 00:09:00;;;;;;;6.97;3.45;;;;;;;;;;5033709;28;20054;-75
2024/02/08 00:11:31;;;;;;;6.50;2.88;;;;;;;;;;5032443;28;20059;-76
2024/02/08 00:13:57;;;;;;;4.97;2.90;;;;;;;;;;5039514;28;20129;-76
2024/02/08 00:16:22;;;;;;;6.85;2.95;;;;;;;;;;5031834;28;20128;-76
2024/02/08 00:18:48;;;;;;;7.15;3.17;;;;;;;;;;5034010;28;20037;-76
2024/02/08 00:21:13;;;;;;;7.13;3.30;;;;;;;;;;5034051;28;20033;-77
2024/02/08 00:23:39;;;;;;;6.85;3.20;;;;;;;;;;5019494;28;20041;-77
2024/02/08 00:26:04;;;;;;;10.35;4.20;;;;;;;;;;5036559;28;20090;-77
2024/02/08 00:28:30;;;;;;;8.32;3.50;;;;;;;;;;5017708;28;20114;-76
2024/02/08 00:30:55;;;;;;;6.18;2.78;;;;;;;;;;5032720;28;20033;-76
2024/02/08 00:33:25;;;;;;;6.68;3.17;;;;;;;;;;5033364;28;20037;-76
2024/02/08 00:35:51;;;;;;;5.88;2.83;;;;;;;;;;5033489;28;20548;-77
2024/02/08 00:38:16;;;;;;;3.42;1.77;;;;;;;;;;5032581;28;20048;-77
2024/02/08 00:40:42;;;;;;;4.57;2.00;;;;;;;;;;5023544;28;20029;-77
2024/02/08 00:43:07;;;;;;;5.35;2.40;;;;;;;;;;5042175;28;20039;-76
2024/02/08 00:45:33;;;;;;;4.40;2.78;;;;;;;;;;5033197;28;20045;-77
2024/02/08 00:47:59;;;;;;;6.50;2.90;;;;;;;;;;5030497;28;20042;-77
2024/02/08 00:50:25;;;;;;;7.63;3.28;;;;;;;;;;5030236;28;20787;-77
2024/02/08 00:52:54;;;;;;;8.50;2.90;;;;;;;;;;5035364;28;20107;-78
2024/02/08 00:55:20;;;;;;;8.00;3.33;;;;;;;;;;5022879;28;20044;-76
2024/02/08 00:57:46;;;;;;;5.18;2.80;;;;;;;;;;5028780;28;20064;-77
2024/02/08 01:00:13;;;;;;;5.95;3.25;;;;;;;;;;5030891;28;20025;-78
2024/02/08 01:02:41;;;;;;;16.48;3.75;;;;;;;;;;5038689;28;20453;-76
2024/02/08 01:05:06;;;;;;;8.43;3.60;;;;;;;;;;5039876;28;20033;-76
2024/02/08 01:07:32;;;;;;;4.82;3.30;;;;;;;;;;5039352;28;20106;-78
2024/02/08 01:09:58;;;;;;;7.20;3.35;;;;;;;;;;5041398;28;20407;-77
2024/02/08 01:12:24;;;;;;;5.72;3.08;;;;;;;;;;5024533;28;20034;-77
2024/02/08 01:14:49;;;;;;;4.05;2.05;;;;;;;;;;5036343;28;20048;-78
2024/02/08 01:17:16;;;;;;;8.90;3.00;;;;;;;;;;5041863;28;20037;-77
2024/02/08 01:19:41;;;;;;;5.60;3.20;;;;;;;;;;5043598;28;20029;-77
2024/02/08 01:22:07;;;;;;;6.45;3.08;;;;;;;;;;5041355;28;20128;-78
2024/02/08 01:24:32;;;;;;;6.68;3.17;;;;;;;;;;5041615;28;20507;-77
2024/02/08 01:26:58;;;;;;;5.90;2.80;;;;;;;;;;5042928;28;20044;-78
2024/02/08 01:29:27;;;;;;;6.95;2.90;;;;;;;;;;5015478;28;20429;-75
2024/02/08 01:31:53;;;;;;;7.95;2.78;;;;;;;;;;5043722;28;20040;-78
2024/02/08 01:34:19;;;;;;;5.82;2.92;;;;;;;;;;5037248;28;20446;-75
2024/02/08 01:36:46;;;;;;;6.13;2.58;;;;;;;;;;5038890;28;20047;-78
2024/02/08 01:39:22;;;;;;;3.10;2.33;;;;;;;;;;5035670;28;20091;-77
2024/02/08 01:41:58;;;;;;;5.50;2.80;;;;;;;;;;5038485;28;20037;-77
2024/02/08 01:44:23;;;;;;;5.75;2.67;;;;;;;;;;5029104;28;20041;-77
2024/02/08 01:46:50;;;;;;;6.25;2.22;;;;;;;;;;5028068;28;20048;-78
2024/02/08 01:49:29;;;;;;;4.88;2.45;;;;;;;;;;5040625;28;20133;-77
2024/02/08 01:51:59;;;;;;;5.03;2.70;;;;;;;;;;5025190;28;20521;-77
2024/02/08 01:54:27;;;;;;;4.47;2.47;;;;;;;;;;5037115;28;20534;-76
2024/02/08 01:56:53;;;;;;;9.45;3.20;;;;;;;;;;5018230;28;20041;-78
2024/02/08 01:59:19;;;;;;;8.30;2.65;;;;;;;;;;5039658;28;20132;-76
2024/02/08 02:01:50;;;;;;;6.10;3.28;;;;;;;;;;5041434;28;20474;-77
2024/02/08 02:04:16;;;;;;;6.85;3.35;;;;;;;;;;5041165;28;20033;-77
2024/02/08 02:06:42;;;;;;;6.45;2.53;;;;;;;;;;5042942;28;20026;-77
2024/02/08 02:09:10;;;;;;;5.63;2.70;;;;;;;;;;5043304;28;20045;-78
2024/02/08 02:11:46;;;;;;;8.38;2.55;;;;;;;;;;5037695;28;20148;-76
2024/02/08 02:14:15;;;;;;;6.40;3.63;;;;;;;;;;5018508;28;20037;-77
2024/02/08 02:16:41;;;;;;;6.88;3.13;;;;;;;;;;5038944;28;20041;-77
2024/02/08 02:19:07;;;;;;;7.22;2.72;;;;;;;;;;5041390;28;20040;-78
2024/02/08 02:21:34;;;;;;;6.28;3.35;;;;;;;;;;5042519;28;20041;-78
2024/02/08 02:24:00;;;;;;;7.60;3.38;;;;;;;;;;5042439;28;20109;-78
2024/02/08 02:26:27;;;;;;;6.43;3.20;;;;;;;;;;5044550;28;20064;-77
2024/02/08 02:28:53;;;;;;;5.82;3.60;;;;;;;;;;5012779;28;20065;-78
2024/02/08 02:31:21;;;;;;;7.75;3.67;;;;;;;;;;5022441;28;20041;-78
2024/02/08 02:33:48;;;;;;;9.60;3.90;;;;;;;;;;5019085;28;20037;-79
2024/02/08 02:36:14;;;;;;;7.60;3.80;;;;;;;;;;5047584;28;20039;-79
2024/02/08 02:38:41;;;;;;;6.72;3.95;;;;;;;;;;5041908;28;20041;-78
2024/02/08 02:41:07;;;;;;;9.88;4.60;;;;;;;;;;5045326;28;20072;-76
2024/02/08 02:43:37;;;;;;;8.40;4.18;;;;;;;;;;5038667;28;20060;-78
2024/02/08 02:46:05;;;;;;;8.07;3.97;;;;;;;;;;5028570;28;20128;-78
2024/02/08 02:48:40;;;;;;;7.07;3.42;;;;;;;;;;5043004;28;20033;-77
2024/02/08 02:51:11;;;;;;;8.73;4.30;;;;;;;;;;5040865;28;20033;-77
2024/02/08 02:53:39;;;;;;;;;;;;;;;;;;5045492;28;20052;-79
2024/02/08 02:56:07;;;;;;;7.97;4.28;;;;;;;;;;5040501;28;20396;-78
2024/02/08 02:58:32;;;;;;;10.40;4.50;;;;;;;;;;5025347;28;20052;-76
2024/02/08 03:01:04;;;;;;;10.40;4.15;;;;;;;;;;5043512;28;20124;-77
2024/02/08 03:03:40;;;;;;;9.52;4.18;;;;;;;;;;5049190;28;20051;-78
2024/02/08 03:06:15;;;;;;;11.60;4.30;;;;;;;;;;5048601;28;20040;-77
2024/02/08 03:08:45;;;;;;;6.85;4.13;;;;;;;;;;5036798;28;20037;-76
2024/02/08 03:11:11;;;;;;;14.15;5.00;;;;;;;;;;5039638;28;20354;-78
2024/02/08 03:13:40;;;;;;;12.32;4.63;;;;;;;;;;5025049;28;20041;-77
2024/02/08 03:16:06;;;;;;;9.13;4.25;;;;;;;;;;5032842;28;20041;-77
2024/02/08 03:18:38;;;;;;;11.02;5.18;;;;;;;;;;5040918;28;20033;-77
2024/02/08 03:21:04;;;;;;;9.48;5.00;;;;;;;;;;5030549;28;20029;-78
2024/02/08 03:23:30;;;;;;;10.35;4.60;;;;;;;;;;5037903;28;20040;-77
2024/02/08 03:25:56;;;;;;;9.98;4.60;;;;;;;;;;5037080;28;20024;-76
2024/02/08 03:28:23;;;;;;;12.18;5.50;;;;;;;;;;5025724;28;20029;-77
2024/02/08 03:30:52;;;;;;;8.57;4.32;;;;;;;;;;5038332;28;20033;-78
2024/02/08 03:33:18;;;;;;;12.55;5.55;;;;;;;;;;5032251;28;20112;-77
2024/02/08 03:35:48;;;;;;;12.20;4.95;;;;;;;;;;5022019;28;20048;-77
2024/02/08 03:38:14;;;;;;;10.57;4.28;;;;;;;;;;5011844;28;20706;-77
2024/02/08 03:40:40;;;;;;;10.30;5.05;;;;;;;;;;5030611;28;20074;-77
2024/02/08 03:43:05;;;;;;;11.35;4.15;;;;;;;;;;5029986;28;20474;-76
2024/02/08 03:45:31;;;;;;;10.10;4.55;;;;;;;;;;5020136;28;20037;-76
2024/02/08 03:47:59;;;;;;;10.32;4.15;;;;;;;;;;5027127;28;20091;-77
2024/02/08 03:50:36;;;;;;;10.00;4.22;;;;;;;;;;5040022;28;20040;-78
2024/02/08 03:53:02;;;;;;;9.30;4.55;;;;;;;;;;5046023;28;20521;-77
2024/02/08 03:55:27;;;;;;;10.63;4.47;;;;;;;;;;5033016;28;20064;-77
2024/02/08 03:57:56;;;;;;;7.25;4.05;;;;;;;;;;5035861;28;20433;-76
2024/02/08 04:00:28;;;;;;;10.05;4.18;;;;;;;;;;5036371;28;20049;-77
2024/02/08 04:03:06;;;;;;;9.05;4.05;;;;;;;;;;5022989;28;20116;-78
2024/02/08 04:54:42;;;;;;;15.98;5.22;;;;;;;;;;5019326;28;20601;-77
2024/02/08 04:57:08;;;;;;;12.32;4.97;;;;;;;;;;5030428;28;20064;-77
2024/02/08 04:59:36;;;;;;;10.65;4.93;;;;;;;;;;5033315;28;20037;-77
2024/02/08 05:02:02;;;;;;;13.30;5.28;;;;;;;;;;5033110;28;20037;-77
2024/02/08 05:04:28;;;;;;;12.43;5.22;;;;;;;;;;5024181;28;20500;-77
2024/02/08 05:06:55;;;;;;;11.80;5.30;;;;;;;;;;5037843;28;20032;-76
2024/02/08 05:09:21;;;;;;;15.02;6.05;;;;;;;;;;5035370;28;20093;-77
2024/02/08 05:11:50;;;;;;;14.05;6.10;;;;;;;;;;5036330;28;20032;-77
2024/02/08 05:14:19;;;;;;;17.02;7.20;;;;;;;;;;5033513;28;20036;-77
2024/02/08 05:16:44;;;;;;;12.65;6.03;;;;;;;;;;5044245;28;20045;-77
2024/02/08 05:19:10;;;;;;;11.10;6.07;;;;;;;;;;5039416;28;20041;-77
2024/02/08 05:21:41;;;;;;;14.43;5.93;;;;;;;;;;5031066;28;20045;-77
2024/02/08 05:24:13;;;;;;;15.35;6.53;;;;;;;;;;5035754;28;20057;-78
2024/02/08 05:26:40;;;;;;;12.20;5.50;;;;;;;;;;5020980;28;20539;-76
2024/02/08 05:29:07;;;;;;;10.45;5.00;;;;;;;;;;5017599;28;20721;-78
2024/02/08 05:31:39;;;;;;;16.15;5.40;;;;;;;;;;5021790;28;20040;-77
2024/02/08 05:34:10;;;;;;;10.80;5.03;;;;;;;;;;5031341;28;20616;-76
2024/02/08 05:36:38;;;;;;;13.57;4.88;;;;;;;;;;5037563;28;20119;-77
2024/02/08 05:39:04;;;;;;;9.05;5.32;;;;;;;;;;5044034;28;20032;-78
2024/02/08 05:41:33;;;;;;;11.57;4.85;;;;;;;;;;5034886;28;20088;-77
2024/02/08 05:44:07;;;;;;;11.25;4.80;;;;;;;;;;5041421;28;21297;-77
2024/02/08 05:46:39;;;;;;;14.05;5.40;;;;;;;;;;5025835;28;20142;-77
2024/02/08 05:49:11;;;;;;;10.75;4.85;;;;;;;;;;5025860;28;20037;-75
2024/02/08 05:51:38;;;;;;;11.23;5.25;;;;;;;;;;5038026;28;20111;-77
2024/02/08 05:54:05;;;;;;;11.00;4.78;;;;;;;;;;5034080;28;20029;-77
2024/02/08 05:56:39;;;;;;;11.18;4.55;;;;;;;;;;5018168;28;20087;-77
2024/02/08 05:59:08;;;;;;;9.55;4.82;;;;;;;;;;5035835;28;20640;-77
2024/02/08 06:01:44;;;;;;;11.38;5.28;;;;;;;;;;5028525;28;20042;-77
2024/02/08 06:04:12;;;;;;;13.88;5.45;;;;;;;;;;5025231;28;20046;-76
2024/02/08 06:06:48;;;;;;;10.55;4.88;;;;;;;;;;5030054;28;20049;-77
2024/02/08 06:09:37;;;;;;;11.77;3.67;;;;;;;;;;5020134;28;20567;-77
2024/02/08 06:12:08;;;;;;;10.32;4.15;;;;;;;;;;5024530;28;20061;-76
2024/02/08 06:14:40;;;;;;;9.00;4.38;;;;;;;;;;5028140;28;20049;-77
2024/02/08 06:17:07;;;;;;;9.23;4.45;;;;;;;;;;5030365;28;20116;-78
2024/02/08 06:19:37;;;;;;;10.52;3.40;;;;;;;;;;5028980;28;20033;-77
2024/02/08 06:22:19;;;;;;;10.35;4.10;;;;;;;;;;5014422;28;20691;-77
2024/02/08 06:24:46;;;;;;;10.65;3.47;;;;;;;;;;5038407;28;20120;-76
2024/02/08 06:27:15;;;;;;;7.97;4.18;;;;;;;;;;5035515;28;20827;-77
2024/02/08 06:29:48;;;;;;;10.48;3.85;;;;;;;;;;5035077;28;20026;-76
2024/02/08 06:32:23;;;;;;;8.43;3.10;;;;;;;;;;5029352;28;20079;-77
2024/02/08 06:35:09;;;;;;;8.32;4.63;;;;;;;;;;5015316;28;20036;-76
2024/02/08 06:37:45;;;;;;;10.48;4.18;;;;;;;;;;5038683;28;20033;-77
2024/02/08 06:43:26;;;;;;;16.17;5.72;;;;;;;;;;5024382;28;20084;-76
2024/02/08 06:45:48;;;;;;;9.10;4.78;;;;;;;;;;5016248;28;20025;-77
2024/02/08 06:48:32;;;;;;;8.20;3.90;;;;;;;;;;5024661;28;20033;-76
2024/02/08 07:37:36;;;;;;;10.88;5.70;;;;;;;;;;5015872;28;20687;-77
2024/02/08 07:40:19;;;;;;;12.10;5.05;;;;;;;;;;5024201;28;20200;-77
2024/02/08 07:42:45;;;;;;;14.85;5.80;;;;;;;;;;5031228;28;20040;-75
2024/02/08 07:45:14;;;;;;;10.98;5.45;;;;;;;;;;5029806;28;20660;-78
2024/02/08 07:47:40;;;;;;;15.57;6.15;;;;;;;;;;5024520;28;20049;-76
2024/02/08 07:50:09;;;;;;;11.75;4.80;;;;;;;;;;5018282;28;20529;-76
2024/02/08 07:52:49;;;;;;;13.05;5.75;;;;;;;;;;5018039;28;20059;-77
2024/02/08 07:55:20;;;;;;;23.85;5.45;;;;;;;;;;5027662;28;20099;-78
2024/02/08 07:57:50;;;;;;;11.47;4.93;;;;;;;;;;5029926;28;20107;-77
2024/02/08 08:00:32;;;;;;;14.57;5.37;;;;;;;;;;5037928;28;20697;-77
2024/02/08 08:02:59;;;;;;;12.40;4.90;;;;;;;;;;5017558;28;20362;-78
2024/02/08 08:05:24;;;;;;;12.75;5.88;;;;;;;;;;5022882;28;20045;-78
2024/02/08 08:07:59;;;;;;;14.88;5.93;;;;;;;;;;5014240;28;20049;-77
2024/02/08 08:10:33;;;;;;;15.48;5.65;;;;;;;;;;5024278;28;20124;-78
2024/02/08 08:13:06;;;;;;;14.32;5.70;;;;;;;;;;5040990;28;20112;-77
2024/02/08 08:15:49;;;;;;;13.77;5.55;;;;;;;;;;5029056;28;20091;-78
2024/02/08 08:18:23;;;;;;;12.18;5.57;;;;;;;;;;5029113;28;20037;-78
2024/02/08 08:20:58;;;;;;;15.07;5.13;;;;;;;;;;5033022;28;20044;-78
2024/02/08 08:23:27;;;;;;;12.38;5.65;;;;;;;;;;5032788;28;20045;-77
2024/02/08 08:28:40;;;;;;;11.80;5.35;;;;;;;;;;5019550;28;20828;-78
2024/02/08 08:33:59;;;;;;;10.45;4.85;;;;;;;;;;5034340;28;20418;-78
2024/02/08 08:36:30;;;;;;;11.23;4.90;;;;;;;;;;5030474;28;20079;-78
2024/02/08 08:41:47;;;;;;;14.77;5.35;;;;;;;;;;5018570;28;20107;-78
2024/02/08 08:44:15;;;;;;;12.13;5.15;;;;;;;;;;5027638;28;20029;-78
2024/02/08 08:46:41;;;;;;;9.10;4.22;;;;;;;;;;5033071;28;20049;-77
2024/02/08 08:49:08;;;;;;;14.07;5.25;;;;;;;;;;5031881;28;20033;-78
2024/02/08 08:51:33;;;;;;;9.52;4.50;;;;;;;;;;5032334;28;20037;-79
2024/02/08 08:54:14;;;;;;;11.70;5.22;;;;;;;;;;5030444;28;20079;-78
2024/02/08 08:56:40;;;;;;;11.75;4.90;;;;;;;;;;5014968;28;20105;-78
2024/02/08 08:59:06;;;;;;;9.43;4.15;;;;;;;;;;5024875;28;20075;-78
2024/02/08 09:01:36;;;;;;;10.40;4.97;;;;;;;;;;5041033;28;20489;-78
2024/02/08 09:04:25;;;;;;;14.68;5.53;;;;;;;;;;5024408;28;20111;-78
2024/02/08 09:06:51;;;;;;;14.23;6.07;;;;;;;;;;5033319;28;20033;-78
2024/02/08 09:09:38;;;;;;;12.02;4.97;;;;;;;;;;5034901;28;20037;-78
2024/02/08 09:12:05;;;;;;;12.57;5.40;;;;;;;;;;5008308;28;20468;-79
2024/02/08 09:14:31;;;;;;;12.95;4.60;;;;;;;;;;5031048;28;20075;-79
2024/02/08 09:16:57;;;;;;;14.55;5.28;;;;;;;;;;5037995;28;20505;-79
2024/02/08 09:19:29;;;;;;;12.93;4.93;;;;;;;;;;5030619;28;20108;-79
2024/02/08 09:22:03;;;;;;;10.48;4.30;;;;;;;;;;5035931;28;20048;-79
2024/02/08 09:24:28;;;;;;;15.05;5.50;;;;;;;;;;5034907;28;20064;-79
2024/02/08 09:27:15;;;;;;;12.05;4.95;;;;;;;;;;5036821;28;20037;-79
2024/02/08 09:29:50;;;;;;;14.05;5.10;;;;;;;;;;5039885;28;20143;-79
2024/02/08 09:32:43;;;;;;;11.85;4.55;;;;;;;;;;5039475;28;20075;-79
2024/02/08 09:35:11;;;;;;;14.57;5.28;;;;;;;;;;5041504;28;20069;-79
2024/02/08 09:37:49;;;;;;;9.90;4.90;;;;;;;;;;5038261;28;20140;-80
2024/02/08 09:42:57;;;;;;;11.23;3.85;;;;;;;;;;5042577;28;20432;-79
2024/02/08 09:48:10;;;;;;;5.82;3.25;;;;;;;;;;5032706;28;20468;-79
2024/02/08 09:50:37;;;;;;;9.38;2.90;;;;;;;;;;5026125;28;20072;-79
2024/02/08 09:53:17;;;;;;;7.38;3.15;;;;;;;;;;5017368;28;20128;-79
2024/02/08 09:55:55;;;;;;;5.60;2.20;;;;;;;;;;5037153;28;20132;-78
2024/02/08 09:58:39;;;;;;;11.88;3.45;;;;;;;;;;5040087;28;20060;-79
2024/02/08 10:01:21;;;;;;;4.97;2.72;;;;;;;;;;5040391;28;20452;-78
2024/02/08 10:03:51;;;;;;;10.13;3.05;;;;;;;;;;5032586;28;20117;-79
2024/02/08 10:06:24;;;;;;;3.72;2.00;;;;;;;;;;5042301;28;20033;-78
2024/02/08 10:09:08;;;;;;;6.82;2.38;;;;;;;;;;5038941;28;20032;-79
2024/02/08 10:11:43;;;;;;;5.18;2.55;;;;;;;;;;5023369;28;20045;-79
2024/02/08 10:14:25;;;;;;;8.52;3.30;;;;;;;;;;5032464;28;20067;-79
2024/02/08 10:16:53;;;;;;;8.13;2.72;;;;;;;;;;5048118;28;20741;-79
2024/02/08 10:19:30;;;;;;;4.75;2.58;;;;;;;;;;5038396;28;20036;-79
2024/02/08 10:22:02;;;;;;;7.43;2.55;;;;;;;;;;5038784;28;20033;-79
2024/02/08 10:27:30;;;;;;;8.05;4.00;;;;;;;;;;4961916;28;20050;-79
2024/02/08 10:30:07;;;;;;;7.68;4.10;;;;;;;;;;5002523;28;20037;-78
2024/02/08 10:32:34;;;;;;;7.28;3.50;;;;;;;;;;5007645;28;20054;-78
2024/02/08 10:35:19;;;;;;;9.20;3.63;;;;;;;;;;5006248;28;20593;-79
2024/02/08 10:38:14;;;;;;;7.07;3.10;;;;;;;;;;5023280;28;20048;-78
2024/02/08 10:40:39;;;;;;;7.68;3.22;;;;;;;;;;5010363;28;20044;-78
2024/02/08 10:43:16;;;;;;;5.60;3.10;;;;;;;;;;5010694;28;20048;-79
2024/02/08 10:45:53;;;;;;;6.93;2.90;;;;;;;;;;5039149;28;20057;-78
2024/02/08 10:48:21;;;;;;;3.80;2.10;;;;;;;;;;5037339;28;20049;-79
2024/02/08 10:50:49;;;;;;;6.38;2.17;;;;;;;;;;5027736;28;20038;-78
2024/02/08 10:53:18;;;;;;;5.38;2.00;;;;;;;;;;5013583;28;20045;-79
2024/02/08 10:55:52;;;;;;;6.80;2.58;;;;;;;;;;5008897;28;20045;-78
2024/02/08 10:58:51;;;;;;;1.15;0.65;;;;;;;;;;5024866;28;20037;-79
2024/02/08 11:01:32;;;;;;;3.30;2.07;;;;;;;;;;5022929;28;20030;-79
2024/02/08 11:04:07;;;;;;;3.35;1.88;;;;;;;;;;5027764;28;20279;-79
2024/02/08 11:06:43;;;;;;;3.50;1.90;;;;;;;;;;5033536;28;20044;-79
2024/02/08 11:09:14;;;;;;;5.90;2.40;;;;;;;;;;5043206;28;20222;-78
2024/02/08 11:11:45;;;;;;;6.30;2.25;;;;;;;;;;5044372;28;20043;-79
2024/02/08 11:14:17;;;;;;;3.67;2.10;;;;;;;;;;5035149;28;20048;-79
2024/02/08 11:16:47;;;;;;;3.53;1.95;;;;;;;;;;5031115;28;20065;-78
2024/02/08 11:19:17;;;;;;;4.53;2.30;;;;;;;;;;5035989;28;20037;-79
2024/02/08 11:21:43;;;;;;;5.95;2.85;;;;;;;;;;5045737;28;20040;-79
2024/02/08 11:24:32;;;;;;;6.00;2.78;;;;;;;;;;5043460;28;20032;-79
2024/02/08 11:27:01;;;;;;;1.60;1.13;;;;;;;;;;5037755;28;20116;-78
2024/02/08 11:29:28;;;;;;;6.03;2.80;;;;;;;;;;5018557;28;20037;-78
2024/02/08 11:31:59;;;;;;;7.18;2.50;;;;;;;;;;5044953;28;20040;-78
2024/02/08 11:34:27;;;;;;;3.55;2.50;;;;;;;;;;5042021;28;20045;-78
2024/02/08 11:36:53;;;;;;;5.80;2.70;;;;;;;;;;5036766;28;20037;-78
2024/02/08 11:39:26;;;;;;;3.22;1.63;;;;;;;;;;5033894;28;20612;-78
2024/02/08 11:41:53;;;;;;;5.53;2.17;;;;;;;;;;5042833;28;20060;-78
2024/02/08 11:44:25;;;;;;;5.45;2.80;;;;;;;;;;5031725;28;20040;-78
2024/02/08 11:47:17;;;;;;;2.22;1.55;;;;;;;;;;5041219;28;20041;-78
2024/02/08 11:49:52;;;;;;;8.90;3.63;;;;;;;;;;5039374;28;20036;-78
2024/02/08 11:52:19;;;;;;;3.35;1.75;;;;;;;;;;5035611;28;20095;-78
2024/02/08 11:54:57;;;;;;;5.93;2.42;;;;;;;;;;5038185;28;20109;-78
2024/02/08 11:57:23;;;;;;;5.70;2.50;;;;;;;;;;5023011;28;20049;-77
2024/02/08 11:59:49;;;;;;;6.18;2.97;;;;;;;;;;5023280;28;20069;-79
2024/02/08 12:02:18;;;;;;;9.43;3.65;;;;;;;;;;5029701;28;20548;-78
2024/02/08 12:04:48;;;;;;;4.93;2.97;;;;;;;;;;5038890;28;20171;-78
2024/02/08 12:07:20;;;;;;;8.68;3.40;;;;;;;;;;5034892;28;20346;-79
2024/02/08 12:09:56;;;;;;;6.75;3.38;;;;;;;;;;5042999;28;20108;-78
2024/02/08 12:12:25;;;;;;;7.72;3.10;;;;;;;;;;5034324;28;20091;-78
2024/02/08 12:14:54;;;;;;;9.68;3.42;;;;;;;;;;5037591;28;20579;-78
2024/02/08 12:17:22;;;;;;;3.75;2.33;;;;;;;;;;5040585;28;20087;-78
2024/02/08 12:19:47;;;;;;;7.00;3.83;;;;;;;;;;5038207;28;20055;-78
2024/02/08 12:22:14;;;;;;;5.93;2.88;;;;;;;;;;5026368;28;20485;-78
2024/02/08 12:24:41;;;;;;;5.68;2.88;;;;;;;;;;5042036;28;20049;-79
2024/02/08 12:27:13;;;;;;;5.53;2.25;;;;;;;;;;5033325;28;20051;-77
2024/02/08 12:29:50;;;;;;;5.95;2.70;;;;;;;;;;5044087;28;20033;-78
2024/02/08 12:32:16;;;;;;;4.30;2.60;;;;;;;;;;5046983;28;20170;-77
2024/02/08 12:34:43;;;;;;;6.55;3.42;;;;;;;;;;5052068;28;20029;-77
2024/02/08 12:37:12;;;;;;;11.75;4.88;;;;;;;;;;5058105;28;20060;-78
2024/02/08 12:39:44;;;;;;;10.02;4.97;;;;;;;;;;5058224;28;20041;-77
2024/02/08 12:42:13;;;;;;;6.22;3.40;;;;;;;;;;5028267;28;20087;-78
2024/02/08 12:44:39;;;;;;;7.75;3.70;;;;;;;;;;5035339;28;20028;-78
2024/02/08 12:47:06;;;;;;;12.80;5.63;;;;;;;;;;5039509;28;20037;-79
2024/02/08 12:49:35;;;;;;;12.18;5.05;;;;;;;;;;5043069;28;20037;-78
2024/02/08 12:52:09;;;;;;;10.35;4.60;;;;;;;;;;5037646;28;20045;-78
2024/02/08 12:54:38;;;;;;;10.05;4.75;;;;;;;;;;5039164;28;20041;-78
2024/02/08 12:57:11;;;;;;;15.32;5.93;;;;;;;;;;5023513;28;20550;-78
2024/02/08 12:59:42;;;;;;;9.60;4.68;;;;;;;;;;5038695;28;20096;-78
2024/02/08 13:02:17;;;;;;;;;;;;;;;;;;5047780;28;20120;-78
2024/02/08 13:04:48;;;;;;;9.75;4.63;;;;;;;;;;5043506;28;19923;-78
2024/02/08 13:07:17;;;;;;;11.27;5.28;;;;;;;;;;5036515;28;20168;-79
2024/02/08 13:09:44;;;;;;;8.95;4.60;;;;;;;;;;5026336;28;20116;-78
2024/02/08 13:12:20;;;;;;;9.35;4.82;;;;;;;;;;5032504;28;20037;-78
2024/02/08 13:14:48;;;;;;;10.95;4.68;;;;;;;;;;5040179;28;20547;-78
2024/02/08 13:17:21;;;;;;;8.48;4.15;;;;;;;;;;5032135;28;20633;-78
2024/02/08 13:19:55;;;;;;;9.07;4.22;;;;;;;;;;5029184;28;20034;-78
2024/02/08 13:22:31;;;;;;;13.82;4.65;;;;;;;;;;5026731;28;20041;-78
2024/02/08 13:24:57;;;;;;;10.32;4.50;;;;;;;;;;5037256;28;20045;-79
2024/02/08 13:27:24;;;;;;;9.60;4.53;;;;;;;;;;5018278;28;20053;-78
2024/02/08 13:29:53;;;;;;;10.95;4.60;;;;;;;;;;5046122;28;20036;-78
2024/02/08 13:32:24;;;;;;;11.77;4.85;;;;;;;;;;5028123;28;20040;-78
2024/02/08 13:34:51;;;;;;;10.70;5.22;;;;;;;;;;5038501;28;20037;-78
2024/02/08 13:37:17;;;;;;;9.95;4.72;;;;;;;;;;5011815;28;20045;-77
2024/02/08 13:39:42;;;;;;;12.23;5.72;;;;;;;;;;5030897;28;20048;-78
2024/02/08 13:42:09;;;;;;;11.25;4.85;;;;;;;;;;5033562;28;20554;-78
2024/02/08 13:44:35;;;;;;;11.45;5.80;;;;;;;;;;5018021;28;20033;-77
2024/02/08 13:47:03;;;;;;;13.38;5.90;;;;;;;;;;5036406;28;20056;-78
2024/02/08 13:49:32;;;;;;;15.63;7.10;;;;;;;;;;5034773;28;20072;-78
2024/02/08 13:51:58;;;;;;;14.85;7.47;;;;;;;;;;5029087;28;20556;-78
2024/02/08 13:54:27;;;;;;;14.02;7.07;;;;;;;;;;5026696;28;20041;-78
2024/02/08 13:56:55;;;;;;;16.48;7.38;;;;;;;;;;5013662;28;20037;-77
2024/02/08 13:59:20;;;;;;;17.65;7.72;;;;;;;;;;5020139;28;20049;-78
2024/02/08 14:01:46;;;;;;;16.20;6.50;;;;;;;;;;5020557;28;20041;-77
2024/02/08 14:04:20;;;;;;;13.48;6.35;;;;;;;;;;5029785;28;20046;-78
2024/02/08 14:06:55;;;;;;;12.75;5.13;;;;;;;;;;5021435;28;20038;-78
2024/02/08 14:09:29;;;;;;;13.93;5.97;;;;;;;;;;5016142;28;20049;-78
2024/02/08 14:11:58;;;;;;;9.68;4.85;;;;;;;;;;5009277;28;20041;-78
2024/02/08 14:14:40;;;;;;;10.30;5.20;;;;;;;;;;5014901;28;20041;-77
2024/02/08 14:17:10;;;;;;;;;;;;;;;;;;5024541;28;20045;-78
2024/02/08 14:19:37;;;;;;;8.27;4.15;;;;;;;;;;5031156;28;20452;-78
2024/02/08 14:22:06;;;;;;;12.20;5.20;;;;;;;;;;5015010;28;20044;-77
2024/02/08 14:24:41;;;;;;;9.05;4.95;;;;;;;;;;5031079;28;20075;-77
2024/02/08 14:27:06;;;;;;;10.00;4.53;;;;;;;;;;5027755;28;20421;-78
2024/02/08 14:29:37;;;;;;;12.20;4.57;;;;;;;;;;5025625;28;20032;-77
2024/02/08 14:32:08;;;;;;;11.60;5.72;;;;;;;;;;5022958;28;20037;-77
2024/02/08 14:34:36;;;;;;;13.82;6.50;;;;;;;;;;5030980;28;20533;-78
2024/02/08 14:37:05;;;;;;;9.45;5.00;;;;;;;;;;5014987;28;20095;-78
2024/02/08 14:39:34;;;;;;;11.65;5.90;;;;;;;;;;5017541;28;20033;-77
2024/02/08 14:42:12;;;;;;;12.10;5.45;;;;;;;;;;5030225;28;20029;-78
2024/02/08 14:44:44;;;;;;;9.63;5.25;;;;;;;;;;5031415;28;20114;-78
2024/02/08 14:47:21;;;;;;;13.63;5.85;;;;;;;;;;5027723;28;20041;-79
2024/02/08 14:49:58;;;;;;;14.07;6.28;;;;;;;;;;5014685;28;20049;-78
2024/02/08 14:52:26;;;;;;;10.63;5.68;;;;;;;;;;5027217;28;20577;-78
2024/02/08 14:55:19;;;;;;;8.88;4.80;;;;;;;;;;5034794;28;20055;-79
2024/02/08 14:57:46;;;;;;;13.10;6.63;;;;;;;;;;5038462;28;20163;-78
2024/02/08 15:03:02;;;;;;;9.75;5.53;;;;;;;;;;5033226;28;20087;-80
2024/02/08 15:05:59;;;;;;;14.98;7.55;;;;;;;;;;5033776;28;20106;-79
2024/02/08 15:11:02;;;;;;;9.73;5.05;;;;;;;;;;5030311;28;20036;-79
2024/02/08 15:13:46;;;;;;;13.18;6.72;;;;;;;;;;5006908;28;20545;-79
2024/02/08 15:16:12;;;;;;;13.93;7.07;;;;;;;;;;5023565;28;20045;-79
2024/02/08 15:18:47;;;;;;;15.00;6.25;;;;;;;;;;5011902;28;20041;-79
2024/02/08 15:21:25;;;;;;;12.02;6.00;;;;;;;;;;5040480;28;20036;-80
2024/02/08 15:27:04;;;;;;;6.57;2.95;;;;;;;;;;5028649;28;20060;-79
2024/02/08 15:29:51;;;;;;;11.77;5.05;;;;;;;;;;5043723;28;20394;-79
2024/02/08 15:32:30;;;;;;;10.60;6.05;;;;;;;;;;5053878;28;20086;-79
2024/02/08 15:34:59;;;;;;;11.82;4.97;;;;;;;;;;5039376;28;20036;-80
2024/02/08 15:39:58;;;;;;;12.80;6.05;;;;;;;;;;5035290;28;20033;-79
2024/02/08 15:42:31;;;;;;;9.57;4.03;;;;;;;;;;5037012;28;20071;-79
2024/02/08 15:45:00;;;;;;;11.60;6.00;;;;;;;;;;5024824;28;20037;-79
2024/02/08 15:47:28;;;;;;;11.57;4.70;;;;;;;;;;5038338;28;20128;-78
2024/02/08 15:49:55;;;;;;;12.38;5.47;;;;;;;;;;5028681;28;20033;-79
2024/02/08 15:52:33;;;;;;;10.45;4.75;;;;;;;;;;5040509;28;20045;-80
2024/02/08 15:54:59;;;;;;;8.13;4.40;;;;;;;;;;5022717;28;20029;-79
2024/02/08 15:57:29;;;;;;;7.82;4.10;;;;;;;;;;5040948;28;20127;-79
2024/02/08 16:00:00;;;;;;;10.10;4.90;;;;;;;;;;5041013;28;20476;-79
2024/02/08 16:02:26;;;;;;;;;;;;;;;;;;5040529;28;20074;-80
2024/02/08 16:04:54;;;;;;;8.52;4.72;;;;;;;;;;5007624;28;19917;-78
2024/02/08 16:07:27;;;;;;;7.63;4.22;;;;;;;;;;5032939;28;20060;-78
2024/02/08 16:09:58;;;;;;;8.40;4.43;;;;;;;;;;5024845;28;20040;-78
2024/02/08 16:12:36;;;;;;;7.57;4.97;;;;;;;;;;5030660;28;20267;-80
2024/02/08 16:15:09;;;;;;;8.43;4.05;;;;;;;;;;5032925;28;20780;-81
2024/02/08 16:22:54;;;;;;;9.10;4.70;;;;;;;;;;5031369;28;20049;-77
2024/02/08 16:25:44;;;;;;;9.30;4.90;;;;;;;;;;5024294;28;20033;-79
2024/02/08 16:28:20;;;;;;;6.55;3.95;;;;;;;;;;5015731;28;20049;-80
2024/02/08 16:31:34;;;;;;;6.82;4.05;;;;;;;;;;5031922;28;20041;-79
2024/02/08 16:33:41;;;;;;;8.32;4.50;;;;;;;;;;5031680;28;20033;-79
2024/02/08 16:39:29;;;;;;;9.82;5.35;;;;;;;;;;5020788;28;20134;-79
2024/02/08 16:41:59;;;;;;;6.70;3.58;;;;;;;;;;5036718;28;20035;-79
2024/02/08 16:47:28;;;;;;;10.90;4.95;;;;;;;;;;5030196;28;20055;-79
2024/02/08 16:49:58;;;;;;;7.78;5.03;;;;;;;;;;5036151;28;20043;-80
2024/02/08 16:52:28;;;;;;;9.27;4.93;;;;;;;;;;5035178;28;20526;-80
2024/02/08 16:55:11;;;;;;;8.68;5.10;;;;;;;;;;5034034;28;20036;-80
2024/02/08 16:57:39;;;;;;;9.27;5.20;;;;;;;;;;5035710;28;20033;-80
2024/02/08 17:03:04;;;;;;;9.25;5.20;;;;;;;;;;5037689;28;20047;-80
2024/02/08 17:05:48;;;;;;;9.50;4.80;;;;;;;;;;5031847;28;20034;-79
2024/02/08 17:08:20;;;;;;;10.43;5.32;;;;;;;;;;5038218;28;20041;-80
2024/02/08 17:10:56;;;;;;;9.27;4.97;;;;;;;;;;5032890;28;20040;-78
2024/02/08 17:13:28;;;;;;;10.48;5.50;;;;;;;;;;5038869;28;20065;-80
2024/02/08 17:16:03;;;;;;;;;;;;;;;;;;5025863;28;20069;-79
2024/02/08 17:18:44;;;;;;;9.65;5.05;;;;;;;;;;5043251;28;20007;-79
2024/02/08 17:21:34;;;;;;;13.25;6.15;;;;;;;;;;5043778;28;20044;-79